createdAt,value
2019-02-22T00:01:34.465Z,90.83
2019-02-22T00:04:02.911Z,99.00
2019-02-22T00:06:31.363Z,90.33
2019-02-22T00:08:59.753Z,95.00
2019-02-22T00:11:28.151Z,89.57
2019-02-22T00:13:56.589Z,97.10
2019-02-22T00:16:24.972Z,83.07
2019-02-22T00:18:53.364Z,52.97
2019-02-22T00:21:22.057Z,78.03
2019-02-22T00:23:50.448Z,87.43
2019-02-22T00:26:18.851Z,71.50
2019-02-22T00:28:47.248Z,67.33
2019-02-22T00:31:15.613Z,83.00
2019-02-22T00:33:44.357Z,71.83
2019-02-22T00:36:14.040Z,80.33
2019-02-22T00:38:42.826Z,79.60
2019-02-22T00:41:11.199Z,79.73
2019-02-22T00:43:39.594Z,80.37
2019-02-22T00:46:07.977Z,82.17
2019-02-22T00:48:36.369Z,79.13
2019-02-22T00:51:04.705Z,73.77
2019-02-22T00:53:33.108Z,83.50
2019-02-22T00:56:01.479Z,75.73
2019-02-22T00:58:29.876Z,79.47
2019-02-22T01:00:58.284Z,67.13
2019-02-22T01:03:26.954Z,74.50
2019-02-22T01:05:55.340Z,74.27
2019-02-22T01:08:23.728Z,82.97
2019-02-22T01:10:52.383Z,87.40
2019-02-22T01:13:20.782Z,85.67
2019-02-22T01:15:49.432Z,99.57
2019-02-22T01:18:17.841Z,108.63
2019-02-22T01:20:53.971Z,81.03
2019-02-22T01:23:16.267Z,96.50
2019-02-22T01:25:44.660Z,93.40
2019-02-22T01:28:13.069Z,95.97
2019-02-22T01:30:41.485Z,80.07
2019-02-22T01:33:09.870Z,103.00
2019-02-22T01:35:38.255Z,78.00
2019-02-22T01:38:06.663Z,109.13
2019-02-22T01:40:43.012Z,98.67
2019-02-22T01:43:05.397Z,104.03
2019-02-22T01:45:33.776Z,109.07
2019-02-22T01:48:02.184Z,90.37
2019-02-22T01:50:30.568Z,82.60
2019-02-22T01:52:58.936Z,107.20
2019-02-22T01:55:27.317Z,88.50
2019-02-22T01:57:55.967Z,89.77
2019-02-22T02:00:24.366Z,75.50
2019-02-22T02:02:52.751Z,82.97
2019-02-22T02:05:21.184Z,89.10
2019-02-22T02:07:49.868Z,90.63
2019-02-22T02:10:18.256Z,87.97
2019-02-22T02:12:46.779Z,103.23
2019-02-22T02:15:15.139Z,98.80
2019-02-22T02:17:43.533Z,103.97
2019-02-22T02:20:11.959Z,92.00
2019-02-22T02:22:40.327Z,107.33
2019-02-22T02:25:09.981Z,110.03
2019-02-22T02:27:38.360Z,109.87
2019-02-22T02:30:08.979Z,96.77
2019-02-22T02:32:37.357Z,104.27
2019-02-22T02:35:06.489Z,94.73
2019-02-22T02:37:34.877Z,105.43
2019-02-22T02:40:03.823Z,105.17
2019-02-22T02:42:32.191Z,92.57
2019-02-22T02:45:00.605Z,94.43
2019-02-22T02:47:29.008Z,92.33
2019-02-22T02:49:57.396Z,91.17
2019-02-22T02:52:25.789Z,106.37
2019-02-22T02:54:54.528Z,103.87
2019-02-22T02:57:22.899Z,114.50
2019-02-22T02:59:51.583Z,110.17
2019-02-22T03:02:21.640Z,110.50
2019-02-22T03:04:50.033Z,111.53
2019-02-22T03:07:28.929Z,119.37
2019-02-22T03:09:57.358Z,108.87
2019-02-22T03:12:25.724Z,122.00
2019-02-22T03:14:54.136Z,111.67
2019-02-22T03:17:22.524Z,117.20
2019-02-22T03:19:50.929Z,117.73
2019-02-22T03:22:19.314Z,126.30
2019-02-22T03:24:47.752Z,140.90
2019-02-22T03:27:16.416Z,115.63
2019-02-22T03:29:44.861Z,106.83
2019-02-22T03:32:13.578Z,125.30
2019-02-22T03:34:42.051Z,133.17
2019-02-22T03:37:10.375Z,154.43
2019-02-22T03:39:38.791Z,123.57
2019-02-22T03:42:07.167Z,136.27
2019-02-22T03:44:35.591Z,125.40
2019-02-22T03:47:03.997Z,115.93
2019-02-22T03:49:32.395Z,110.43
2019-02-22T03:52:02.492Z,98.87
2019-02-22T03:54:30.893Z,100.03
2019-02-22T03:56:59.571Z,113.97
2019-02-22T03:59:28.251Z,122.90
2019-02-22T04:01:56.654Z,120.10
2019-02-22T04:04:25.331Z,126.53
2019-02-22T04:06:53.725Z,149.13
2019-02-22T04:09:22.129Z,172.13
2019-02-22T04:11:50.812Z,140.57
2019-02-22T04:14:19.210Z,139.47
2019-02-22T04:16:47.631Z,129.87
2019-02-22T04:19:16.028Z,141.40
2019-02-22T04:21:44.416Z,129.70
2019-02-22T04:24:12.793Z,151.77
2019-02-22T04:26:41.235Z,130.63
2019-02-22T04:29:09.612Z,155.33
2019-02-22T04:31:38.059Z,189.37
2019-02-22T04:34:06.424Z,130.17
2019-02-22T04:36:34.852Z,146.83
2019-02-22T04:39:04.623Z,133.47
2019-02-22T04:41:33.133Z,146.93
2019-02-22T04:44:01.805Z,161.60
2019-02-22T04:46:30.185Z,140.47
2019-02-22T04:48:58.591Z,132.47
2019-02-22T04:51:27.004Z,125.80
2019-02-22T04:53:55.385Z,153.70
2019-02-22T04:56:24.120Z,137.20
2019-02-22T04:58:52.525Z,128.57
2019-02-22T05:01:20.895Z,126.87
2019-02-22T05:03:49.311Z,126.57
2019-02-22T05:06:17.706Z,109.40
2019-02-22T05:08:46.157Z,115.77
2019-02-22T05:11:14.587Z,123.03
2019-02-22T05:13:42.991Z,126.50
2019-02-22T05:16:11.405Z,111.57
2019-02-22T05:18:39.809Z,105.13
2019-02-22T05:21:08.197Z,124.03
2019-02-22T05:23:36.638Z,111.37
2019-02-22T05:26:05.020Z,128.07
2019-02-22T05:28:33.439Z,159.00
2019-02-22T05:31:01.837Z,105.37
2019-02-22T05:33:30.239Z,117.97
2019-02-22T05:35:58.619Z,100.07
2019-02-22T05:38:27.024Z,106.10
2019-02-22T05:40:55.746Z,116.77
2019-02-22T05:43:24.169Z,119.20
2019-02-22T05:45:52.817Z,135.33
2019-02-22T05:48:21.238Z,152.43
2019-02-22T05:50:49.631Z,105.43
2019-02-22T05:53:18.030Z,136.18
2019-02-22T05:55:46.813Z,139.17
2019-02-22T05:58:15.607Z,170.97
2019-02-22T06:00:44.014Z,144.67
2019-02-22T06:03:12.397Z,143.00
2019-02-22T06:05:40.816Z,130.77
2019-02-22T06:08:09.365Z,123.33
2019-02-22T06:10:37.827Z,90.37
2019-02-22T06:13:06.194Z,122.50
2019-02-22T06:15:34.610Z,101.97
2019-02-22T06:18:03.053Z,93.57
2019-02-22T06:20:31.468Z,114.43
2019-02-22T06:22:59.852Z,113.60
2019-02-22T06:25:28.274Z,121.23
2019-02-22T06:27:56.665Z,88.30
2019-02-22T06:30:25.087Z,105.53
2019-02-22T06:32:53.481Z,120.73
2019-02-22T06:35:21.907Z,113.60
2019-02-22T06:37:50.302Z,117.25
2019-02-22T06:40:18.963Z,126.13
2019-02-22T06:42:47.398Z,106.50
2019-02-22T06:45:15.782Z,116.80
2019-02-22T06:47:44.338Z,115.33
2019-02-22T06:50:12.719Z,125.37
2019-02-22T06:52:41.413Z,103.77
2019-02-22T06:55:09.808Z,128.33
2019-02-22T06:57:38.214Z,106.93
2019-02-22T07:00:11.881Z,129.60
2019-02-22T07:02:40.302Z,132.30
2019-02-22T07:05:08.757Z,100.40
2019-02-22T07:07:37.162Z,109.90
2019-02-22T07:10:08.559Z,108.07
2019-02-22T07:12:38.597Z,97.17
2019-02-22T07:15:07.934Z,92.83
2019-02-22T07:17:36.354Z,102.07
2019-02-22T07:20:07.832Z,102.87
2019-02-22T07:22:36.256Z,122.33
2019-02-22T07:25:07.817Z,122.93
2019-02-22T07:27:36.211Z,139.63
2019-02-22T07:30:07.036Z,151.43
2019-02-22T07:32:35.440Z,116.67
2019-02-22T07:35:03.933Z,115.60
2019-02-22T07:37:32.337Z,127.03
2019-02-22T07:40:00.701Z,123.23
2019-02-22T07:42:29.081Z,111.73
2019-02-22T07:44:57.496Z,118.13
2019-02-22T07:47:25.881Z,125.07
2019-02-22T07:49:54.277Z,119.93
2019-02-22T07:52:22.691Z,132.43
2019-02-22T07:54:51.079Z,120.27
2019-02-22T07:57:19.492Z,101.63
2019-02-22T07:59:48.055Z,109.03
2019-02-22T08:02:16.391Z,113.80
2019-02-22T08:04:44.783Z,91.93
2019-02-22T08:07:13.198Z,97.53
2019-02-22T08:09:41.592Z,95.43
2019-02-22T08:12:09.997Z,99.97
2019-02-22T08:14:38.583Z,96.10
2019-02-22T08:17:06.995Z,90.30
2019-02-22T08:19:35.363Z,86.50
2019-02-22T08:22:03.780Z,95.77
2019-02-22T08:24:32.154Z,117.67
2019-02-22T08:27:00.539Z,95.73
2019-02-22T08:29:28.950Z,86.23
2019-02-22T08:31:57.335Z,87.03
2019-02-22T08:34:25.775Z,79.47
2019-02-22T08:36:54.134Z,74.60
2019-02-22T08:39:22.528Z,84.23
2019-02-22T08:41:50.917Z,80.70
2019-02-22T08:44:19.326Z,67.07
2019-02-22T08:46:47.712Z,78.43
2019-02-22T08:49:16.135Z,71.40
2019-02-22T08:51:44.807Z,71.70
2019-02-22T08:54:13.507Z,76.33
2019-02-22T08:56:41.887Z,74.43
2019-02-22T08:59:10.311Z,78.93
2019-02-22T09:01:38.696Z,74.00
2019-02-22T09:04:07.079Z,77.00
2019-02-22T09:06:35.469Z,71.47
2019-02-22T09:09:05.285Z,74.23
2019-02-22T09:11:33.684Z,69.07
2019-02-22T09:14:02.063Z,72.97
2019-02-22T09:16:32.162Z,78.37
2019-02-22T09:19:00.827Z,76.30
2019-02-22T09:21:29.218Z,68.90
2019-02-22T09:23:57.607Z,72.93
2019-02-22T09:26:26.006Z,62.37
2019-02-22T09:28:55.545Z,66.83
2019-02-22T09:31:24.381Z,66.37
2019-02-22T09:33:52.767Z,66.03
2019-02-22T09:36:21.161Z,65.67
2019-02-22T09:38:49.560Z,70.67
2019-02-22T09:41:17.960Z,66.93
2019-02-22T09:43:54.664Z,62.80
2019-02-22T09:46:16.428Z,62.13
2019-02-22T09:48:44.850Z,62.90
2019-02-22T09:51:13.261Z,62.80
2019-02-22T09:53:41.691Z,64.07
2019-02-22T09:56:10.104Z,69.10
2019-02-22T09:58:38.509Z,60.13
2019-02-22T10:01:06.930Z,68.63
2019-02-22T10:03:35.577Z,68.20
2019-02-22T10:06:03.982Z,66.70
2019-02-22T10:08:32.373Z,67.10
2019-02-22T10:11:03.022Z,64.73
2019-02-22T10:13:31.422Z,66.27
2019-02-22T10:15:59.852Z,67.80
2019-02-22T10:18:28.253Z,65.17
2019-02-22T10:20:56.671Z,65.20
2019-02-22T10:23:25.062Z,65.53
2019-02-22T10:25:53.776Z,60.23
2019-02-22T10:28:22.177Z,66.27
2019-02-22T10:30:50.581Z,73.10
2019-02-22T10:33:18.982Z,72.70
2019-02-22T10:35:47.373Z,75.70
2019-02-22T10:38:15.804Z,74.70
2019-02-22T10:40:44.175Z,76.97
2019-02-22T10:43:12.584Z,78.00
2019-02-22T10:45:40.989Z,67.30
2019-02-22T10:48:09.411Z,64.83
2019-02-22T10:50:37.819Z,67.03
2019-02-22T10:53:06.299Z,67.83
2019-02-22T10:55:34.720Z,73.30
2019-02-22T10:58:03.148Z,72.60
2019-02-22T11:00:31.846Z,72.07
2019-02-22T11:03:00.240Z,67.50
2019-02-22T11:05:28.630Z,73.93
2019-02-22T11:07:57.049Z,70.43
2019-02-22T11:10:25.439Z,74.27
2019-02-22T11:12:53.829Z,62.33
2019-02-22T11:15:22.234Z,67.17
2019-02-22T11:17:50.653Z,66.87
2019-02-22T11:20:19.031Z,66.37
2019-02-22T11:22:47.444Z,63.43
2019-02-22T11:25:16.680Z,63.77
2019-02-22T11:27:45.090Z,60.90
2019-02-22T11:30:16.425Z,65.13
2019-02-22T11:32:44.793Z,60.30
2019-02-22T11:35:13.218Z,63.83
2019-02-22T11:37:41.591Z,60.13
2019-02-22T11:40:10.917Z,57.57
2019-02-22T11:42:39.303Z,59.43
2019-02-22T11:45:08.745Z,51.57
2019-02-22T11:47:37.144Z,60.67
2019-02-22T11:50:08.691Z,58.60
2019-02-22T11:52:37.060Z,59.67
2019-02-22T11:55:10.587Z,57.53
2019-02-22T11:57:38.986Z,61.40
2019-02-22T12:00:14.449Z,61.87
2019-02-22T12:02:45.141Z,59.33
2019-02-22T12:05:13.172Z,62.50
2019-02-22T12:07:41.567Z,62.07
2019-02-22T12:10:09.982Z,55.60
2019-02-22T12:12:38.364Z,56.43
2019-02-22T12:15:09.756Z,56.03
2019-02-22T12:17:38.119Z,59.07
2019-02-22T12:20:08.055Z,49.73
2019-02-22T12:22:36.432Z,54.37
2019-02-22T12:25:07.748Z,52.63
2019-02-22T12:27:36.158Z,54.30
2019-02-22T12:30:10.267Z,48.67
2019-02-22T12:32:39.575Z,49.70
2019-02-22T12:35:08.038Z,47.90
2019-02-22T12:37:36.427Z,51.10
2019-02-22T12:40:07.469Z,51.07
2019-02-22T12:42:35.901Z,54.70
2019-02-22T12:45:06.412Z,49.70
2019-02-22T12:47:34.976Z,49.53
2019-02-22T12:50:03.746Z,51.13
2019-02-22T12:52:32.135Z,48.57
2019-02-22T12:55:00.639Z,50.40
2019-02-22T12:57:29.488Z,50.40
2019-02-22T12:59:57.902Z,48.53
2019-02-22T13:02:26.302Z,45.10
2019-02-22T13:04:54.755Z,41.20
2019-02-22T13:07:23.139Z,44.30
2019-02-22T13:09:51.478Z,43.07
2019-02-22T13:12:20.239Z,47.43
2019-02-22T13:14:48.617Z,47.03
2019-02-22T13:17:17.030Z,41.93
2019-02-22T13:19:45.401Z,42.90
2019-02-22T13:22:13.811Z,46.30
2019-02-22T13:24:42.185Z,44.97
2019-02-22T13:27:10.591Z,43.80
2019-02-22T13:29:38.995Z,44.67
2019-02-22T13:32:07.391Z,42.57
2019-02-22T13:34:35.775Z,42.33
2019-02-22T13:37:04.182Z,41.53
2019-02-22T13:39:32.570Z,42.77
2019-02-22T13:42:00.973Z,41.33
2019-02-22T13:44:29.370Z,40.07
2019-02-22T13:46:57.786Z,41.30
2019-02-22T13:49:26.184Z,38.67
2019-02-22T13:51:54.576Z,41.63
2019-02-22T13:54:22.965Z,40.27
2019-02-22T13:56:51.654Z,38.63
2019-02-22T13:59:20.042Z,36.60
2019-02-22T14:01:48.703Z,39.23
2019-02-22T14:04:17.109Z,34.30
2019-02-22T14:06:45.490Z,36.47
2019-02-22T14:09:13.894Z,33.23
2019-02-22T14:11:42.282Z,37.10
2019-02-22T14:14:10.667Z,33.97
2019-02-22T14:16:38.993Z,32.27
2019-02-22T14:19:09.088Z,32.60
2019-02-22T14:21:37.726Z,29.73
2019-02-22T14:24:09.544Z,30.90
2019-02-22T14:26:38.050Z,31.03
2019-02-22T14:29:06.445Z,30.20
2019-02-22T14:31:41.264Z,31.30
2019-02-22T14:34:09.666Z,29.60
2019-02-22T14:36:38.041Z,27.83
2019-02-22T14:39:06.879Z,30.40
2019-02-22T14:41:37.274Z,33.93
2019-02-22T14:44:05.622Z,29.93
2019-02-22T14:46:34.009Z,35.97
2019-02-22T14:49:02.403Z,33.33
2019-02-22T14:51:30.819Z,32.83
2019-02-22T14:53:59.198Z,32.93
2019-02-22T14:56:27.618Z,36.37
2019-02-22T14:58:56.024Z,37.33
2019-02-22T15:01:24.431Z,36.23
2019-02-22T15:03:52.839Z,39.23
2019-02-22T15:06:21.258Z,37.37
2019-02-22T15:08:49.638Z,37.73
2019-02-22T15:11:18.040Z,36.40
2019-02-22T15:13:46.434Z,36.00
2019-02-22T15:16:16.786Z,36.23
2019-02-22T15:18:45.493Z,37.00
2019-02-22T15:21:13.904Z,35.20
2019-02-22T15:23:42.297Z,34.90
2019-02-22T15:26:10.735Z,36.40
2019-02-22T15:28:39.100Z,40.33
2019-02-22T15:31:07.492Z,35.17
2019-02-22T15:33:35.899Z,37.77
2019-02-22T15:36:04.855Z,38.27
2019-02-22T15:38:34.678Z,38.87
2019-02-22T15:41:03.255Z,37.53
2019-02-22T15:43:31.638Z,39.60
2019-02-22T15:46:11.503Z,38.00
2019-02-22T15:48:30.391Z,40.87
2019-02-22T15:50:58.788Z,30.83
2019-02-22T15:53:27.469Z,33.77
2019-02-22T15:55:55.842Z,33.70
2019-02-22T15:58:25.152Z,30.90
2019-02-22T16:00:53.551Z,28.83
2019-02-22T16:03:22.908Z,31.57
2019-02-22T16:05:51.284Z,30.90
2019-02-22T16:08:19.674Z,30.40
2019-02-22T16:10:48.093Z,30.87
2019-02-22T16:13:16.488Z,30.30
2019-02-22T16:15:44.896Z,29.20
2019-02-22T16:18:13.618Z,29.13
2019-02-22T16:20:42.062Z,31.77
2019-02-22T16:23:10.442Z,30.60
2019-02-22T16:25:38.851Z,27.73
2019-02-22T16:28:07.250Z,34.13
2019-02-22T16:30:36.629Z,59.10
2019-02-22T16:33:05.043Z,66.30
2019-02-22T16:35:33.431Z,60.73
2019-02-22T16:38:01.880Z,73.20
2019-02-22T16:40:30.275Z,66.13
2019-02-22T16:42:59.664Z,73.83
2019-02-22T16:45:28.139Z,77.53
2019-02-22T16:47:56.629Z,85.83
2019-02-22T16:50:25.088Z,84.50
2019-02-22T16:52:53.561Z,80.23
2019-02-22T16:55:21.966Z,87.70
2019-02-22T16:57:50.657Z,94.07
2019-02-22T17:00:19.071Z,95.87
2019-02-22T17:02:47.445Z,96.00
2019-02-22T17:05:16.620Z,106.07
2019-02-22T17:07:46.667Z,100.50
2019-02-22T17:10:15.078Z,103.17
2019-02-22T17:12:44.235Z,107.13
2019-02-22T17:15:13.773Z,116.67
2019-02-22T17:17:42.186Z,128.53
2019-02-22T17:20:12.981Z,121.10
2019-02-22T17:22:41.421Z,117.67
2019-02-22T17:25:18.075Z,120.93
2019-02-22T17:27:46.475Z,127.80
2019-02-22T17:30:16.505Z,128.63
2019-02-22T17:32:44.938Z,125.47
2019-02-22T17:35:13.345Z,129.90
2019-02-22T17:37:42.015Z,133.33
2019-02-22T17:40:13.331Z,147.73
2019-02-22T17:42:41.722Z,141.50
2019-02-22T17:45:10.167Z,139.97
2019-02-22T17:47:38.577Z,146.57
2019-02-22T17:50:09.049Z,151.90
2019-02-22T17:52:37.425Z,146.63
2019-02-22T17:55:09.610Z,158.40
2019-02-22T17:57:38.009Z,165.50
2019-02-22T18:00:17.968Z,160.93
2019-02-22T18:02:46.374Z,162.27
2019-02-22T18:05:14.802Z,150.53
2019-02-22T18:07:43.247Z,154.07
2019-02-22T18:10:11.909Z,165.73
2019-02-22T18:12:40.323Z,158.77
2019-02-22T18:15:13.830Z,164.73
2019-02-22T18:17:44.428Z,164.67
2019-02-22T18:20:12.879Z,160.20
2019-02-22T18:22:41.317Z,150.60
2019-02-22T18:25:09.929Z,156.23
2019-02-22T18:27:38.430Z,155.30
2019-02-22T18:30:10.040Z,162.00
2019-02-22T18:32:38.618Z,159.63
2019-02-22T18:35:07.694Z,165.50
2019-02-22T18:37:36.128Z,171.10
2019-02-22T18:40:08.306Z,158.13
2019-02-22T18:42:36.732Z,157.07
2019-02-22T18:45:06.469Z,149.33
2019-02-22T18:47:34.888Z,162.27
2019-02-22T18:50:03.280Z,149.37
2019-02-22T18:52:31.728Z,153.17
2019-02-22T18:55:01.753Z,141.67
2019-02-22T18:57:30.281Z,143.40
2019-02-22T19:00:01.490Z,137.17
2019-02-22T19:02:29.924Z,140.93
2019-02-22T19:04:58.305Z,138.43
2019-02-22T19:07:27.302Z,132.63
2019-02-22T19:09:55.835Z,130.70
2019-02-22T19:12:25.590Z,136.87
2019-02-22T19:14:54.028Z,138.60
2019-02-22T19:17:30.122Z,139.00
2019-02-22T19:19:53.453Z,142.30
2019-02-22T19:22:21.873Z,135.70
2019-02-22T19:24:52.381Z,136.40
2019-02-22T19:27:20.768Z,133.97
2019-02-22T19:29:49.152Z,129.13
2019-02-22T19:32:17.575Z,126.60
2019-02-22T19:34:46.051Z,140.57
2019-02-22T19:37:14.468Z,122.53
2019-02-22T19:39:42.871Z,125.17
2019-02-22T19:42:11.285Z,126.53
2019-02-22T19:44:39.699Z,133.20
2019-02-22T19:47:08.117Z,126.90
2019-02-22T19:49:36.524Z,133.50
2019-02-22T19:52:04.913Z,130.63
2019-02-22T19:54:33.322Z,129.07
2019-02-22T19:57:01.731Z,132.07
2019-02-22T19:59:30.501Z,130.13
2019-02-22T20:01:58.978Z,135.17
2019-02-22T20:04:27.443Z,135.43
2019-02-22T20:06:55.845Z,139.27
2019-02-22T20:09:24.275Z,141.20
2019-02-22T20:11:52.680Z,139.37
2019-02-22T20:14:21.066Z,133.37
2019-02-22T20:16:49.477Z,138.07
2019-02-22T20:19:17.865Z,128.50
2019-02-22T20:21:46.283Z,136.33
2019-02-22T20:24:14.680Z,147.57
2019-02-22T20:26:43.092Z,147.10
2019-02-22T20:29:11.518Z,128.13
2019-02-22T20:31:39.906Z,125.23
2019-02-22T20:34:08.604Z,138.27
2019-02-22T20:36:36.984Z,129.40
2019-02-22T20:39:06.129Z,137.73
2019-02-22T20:41:34.514Z,136.00
2019-02-22T20:44:02.931Z,132.77
2019-02-22T20:46:31.562Z,126.87
2019-02-22T20:49:01.100Z,118.80
2019-02-22T20:51:29.658Z,128.27
2019-02-22T20:53:58.380Z,120.23
2019-02-22T20:56:26.743Z,131.13
2019-02-22T20:58:55.130Z,130.93
2019-02-22T21:01:23.525Z,126.30
2019-02-22T21:03:52.236Z,117.90
2019-02-22T21:06:20.661Z,128.37
2019-02-22T21:08:49.072Z,114.27
2019-02-22T21:11:17.480Z,118.60
2019-02-22T21:13:45.870Z,118.63
2019-02-22T21:16:14.261Z,129.70
2019-02-22T21:18:42.743Z,122.87
2019-02-22T21:21:11.212Z,127.10
2019-02-22T21:23:39.579Z,143.37
2019-02-22T21:26:08.003Z,124.07
2019-02-22T21:28:36.413Z,136.73
2019-02-22T21:31:04.799Z,134.67
2019-02-22T21:33:33.190Z,131.67
2019-02-22T21:36:01.601Z,115.83
2019-02-22T21:38:30.024Z,122.63
2019-02-22T21:40:58.435Z,116.97
2019-02-22T21:43:26.823Z,131.33
2019-02-22T21:45:55.284Z,131.93
2019-02-22T21:48:27.566Z,129.53
2019-02-22T21:50:53.753Z,139.40
2019-02-22T21:53:22.179Z,122.70
2019-02-22T21:55:50.613Z,136.07
2019-02-22T21:58:19.008Z,149.30
2019-02-22T22:00:47.891Z,150.30
2019-02-22T22:03:16.309Z,139.70
2019-02-22T22:05:44.717Z,134.47
2019-02-22T22:08:13.098Z,164.80
2019-02-22T22:10:41.492Z,153.10
2019-02-22T22:13:09.877Z,164.23
2019-02-22T22:15:38.294Z,160.37
2019-02-22T22:18:06.708Z,187.83
2019-02-22T22:20:35.136Z,181.17
2019-02-22T22:23:03.504Z,187.07
2019-02-22T22:25:31.901Z,192.17
2019-02-22T22:28:00.341Z,173.33
2019-02-22T22:30:28.770Z,213.27
2019-02-22T22:32:57.168Z,191.80
2019-02-22T22:35:25.560Z,199.83
2019-02-22T22:37:53.993Z,191.20
2019-02-22T22:40:22.365Z,219.30
2019-02-22T22:42:50.774Z,233.27
2019-02-22T22:45:19.232Z,204.57
2019-02-22T22:47:47.697Z,225.70
2019-02-22T22:50:17.150Z,238.10
2019-02-22T22:52:45.565Z,244.50
2019-02-22T22:55:13.964Z,232.37
2019-02-22T22:57:42.370Z,221.63
2019-02-22T23:00:30.690Z,214.90
2019-02-22T23:02:59.096Z,249.50
2019-02-22T23:05:27.764Z,220.77
2019-02-22T23:07:56.192Z,198.87
2019-02-22T23:10:24.582Z,205.23
2019-02-22T23:12:52.991Z,220.27
2019-02-22T23:15:21.440Z,197.10
2019-02-22T23:17:49.844Z,220.07
2019-02-22T23:20:18.216Z,216.33
2019-02-22T23:22:46.606Z,209.37
2019-02-22T23:25:15.021Z,202.87
2019-02-22T23:27:43.414Z,187.40
2019-02-22T23:30:11.830Z,181.70
2019-02-22T23:32:40.194Z,195.80
2019-02-22T23:35:08.603Z,203.83
2019-02-22T23:37:37.011Z,191.23
2019-02-22T23:40:05.778Z,183.53
2019-02-22T23:42:34.162Z,184.47
2019-02-22T23:45:02.568Z,211.90
2019-02-22T23:47:30.967Z,208.93
2019-02-22T23:49:59.381Z,211.20
2019-02-22T23:52:27.760Z,192.63
2019-02-22T23:54:56.173Z,193.63
2019-02-22T23:57:24.591Z,192.03
2019-02-22T23:59:53.353Z,186.27
